BENVENUTI AL 154° GRUPPO VIRTUALE
Friday, 06 July 2018 13:09

Cambio Comando 154° Gruppo

Written by
Rate this item
(0 votes)
Nel corso della mattinata di Venerdì 06 Luglio, presso l'Aeroporto Militare di Ghedi (Brescia), ha avuto luogo la cerimonia di passaggio di consegne del 154° Gruppo Volo tra il Tenente Colonnello Fabio S., Comandante uscente, ed il Tenente Colonnello Giovanni L., Comandante subentrante. Tenutasi presso l'hangar del 154° Gruppo Volo e presieduta dal Colonnello Luca Maineri, Comandante del 6° Stormo, la cerimonia si è svolta alla presenza del personale militare e civile del Reparto, dei familiari e una rappresentanza di ex "Diavoli Rossi" che nel corso degli anni ha servito sotto l'effige del Gruppo Volo. Il Comandante uscente, nel discorso di commiato ha portato alla memoria innumerevoli momenti di espressione di alta professionalità, di spirito di sacrificio e di eccellenza operativa, non celando la grande emozione nel lasciare dopo più di sedici anni la vita operativa di Reparto. Il Comandante subentrante, nell'assumere il nuovo incarico, ha assicurato l'incondizionata disponibilità nell'assolvimento dei compiti a lui assegnati, impegnandosi ad operare con fiducia, umiltà e determinazione per poter soddisfare al meglio l'incarico ricoperto. Il Comandante di Stormo, prendendo la parola per il suo intervento, ha ringraziato tutti i presenti che hanno voluto testimoniare l'amicizia, l'attaccamento, la passione e l'affetto custodito verso il Gruppo Volo e, continuando, ha voluto tributare un riconoscimento a tutto il personale del 154° Gruppo, per "l'attività svolta con rigore professionale e assoluta dedizione". A seguire, ha rimarcato come il Gruppo "stia continuando ad essere, sempre di più, parte essenziale di un sistema ben più complesso, altamente efficace, specializzato e fortemente integrato, che vede insieme al 102° e al 155° una realtà operativa unica, multidisciplinare ben connessa con tutti gli enti dello Stormo". Il formale passaggio di consegne è stato sancito dal simbolico cambio di comando in volo, attività addestrativa programmata nell'ambito del Reparto. I velivoli si sono scambiati la posizione di leader di una formazione di cinque Tornado. Fonte: Aeronautica Militare Articolo originale 
Read 272 times Last modified on Wednesday, 02 October 2019 15:25

Leave a comment

Make sure you enter all the required information, indicated by an asterisk (*). HTML code is not allowed.

METAR & TAF

[Source: ADDS]
METAR
LIPL 231755Z 06004KT 6000 NSC 06/03 Q1027 RMK BKN BKN120 VIS MIN 6000 WIND THR31 06004KT WIND THR13 06004KT WHT =
LIPL 231700Z 2318/2403 VRB03KT 5000 BR NSC BECMG 2321/2323 3000 BR
TAF
LIPL 231700Z 2318/2403 VRB03KT 5000 BR NSC BECMG 2321/2323 3000 BR =

Notice: Undefined index: sun in /web/htdocs/www.154gruppovirtuale.it/home/modules/mod_wx/tmpl/default.php on line 13

Link utili

 
 
 

Network

Simulation Platform